createdAt,value
2023-05-14T00:00:31.098Z,98509.31
2023-05-14T00:02:57.951Z,98495.63
2023-05-14T00:05:24.943Z,98500.69
2023-05-14T00:07:51.785Z,98501.44
2023-05-14T00:10:20.377Z,98501.13
2023-05-14T00:12:47.503Z,98509.16
2023-05-14T00:15:14.179Z,98502.09
2023-05-14T00:17:42.389Z,98506.53
2023-05-14T00:20:11.167Z,98503.00
2023-05-14T00:22:39.428Z,98503.78
2023-05-14T00:25:07.709Z,98504.66
2023-05-14T00:27:35.174Z,98498.69
2023-05-14T00:30:02.484Z,98495.22
2023-05-14T00:32:29.229Z,98490.16
2023-05-14T00:34:55.896Z,98491.06
2023-05-14T00:37:22.524Z,98487.72
2023-05-14T00:39:49.240Z,98494.78
2023-05-14T00:42:15.970Z,98492.97
2023-05-14T00:44:42.668Z,98491.59
2023-05-14T00:47:09.574Z,98488.75
2023-05-14T00:49:36.615Z,98485.94
2023-05-14T00:52:03.558Z,98495.81
2023-05-14T00:54:30.497Z,98494.06
2023-05-14T00:56:57.664Z,98487.16
2023-05-14T00:59:24.377Z,98489.81
2023-05-14T01:01:51.182Z,98485.03
2023-05-14T01:04:18.476Z,98480.00
2023-05-14T01:07:13.454Z,98478.75
2023-05-14T01:10:05.283Z,98484.84
2023-05-14T01:12:57.732Z,98485.84
2023-05-14T01:15:30.602Z,98482.38
2023-05-14T01:18:13.662Z,98480.72
2023-05-14T01:20:40.592Z,98477.25
2023-05-14T01:23:08.127Z,98479.09
2023-05-14T01:25:35.271Z,98474.88
2023-05-14T01:28:18.767Z,98470.16
2023-05-14T01:30:52.011Z,98469.69
2023-05-14T01:33:19.618Z,98475.63
2023-05-14T01:35:48.341Z,98478.19
2023-05-14T01:38:17.888Z,98464.94
2023-05-14T01:40:46.050Z,98467.66
2023-05-14T01:43:13.388Z,98476.94
2023-05-14T01:45:41.433Z,98475.75
2023-05-14T01:48:08.167Z,98472.06
2023-05-14T01:50:34.873Z,98479.19
2023-05-14T01:53:01.581Z,98476.72
2023-05-14T01:55:28.197Z,98470.78
2023-05-14T01:57:54.944Z,98471.91
2023-05-14T02:00:24.516Z,98474.59
2023-05-14T02:02:51.564Z,98479.25
2023-05-14T02:05:18.695Z,98464.31
2023-05-14T02:07:45.345Z,98472.59
2023-05-14T02:10:12.056Z,98462.03
2023-05-14T02:12:38.699Z,98454.69
2023-05-14T02:15:05.996Z,98468.03
2023-05-14T02:17:33.232Z,98471.72
2023-05-14T02:19:59.888Z,98461.91
2023-05-14T02:22:26.638Z,98461.28
2023-05-14T02:24:53.291Z,98460.38
2023-05-14T02:27:20.104Z,98458.78
2023-05-14T02:29:47.870Z,98460.69
2023-05-14T02:32:14.547Z,98456.81
2023-05-14T02:34:41.241Z,98454.75
2023-05-14T02:37:07.850Z,98452.22
2023-05-14T02:39:34.525Z,98451.16
2023-05-14T02:42:01.170Z,98450.28
2023-05-14T02:44:27.806Z,98453.88
2023-05-14T02:46:54.525Z,98451.03
2023-05-14T02:49:21.619Z,98444.06
2023-05-14T02:51:48.262Z,98442.41
2023-05-14T02:54:16.439Z,98447.00
2023-05-14T02:56:43.285Z,98453.09
2023-05-14T02:59:09.958Z,98448.78
2023-05-14T03:01:37.157Z,98447.03
2023-05-14T03:04:04.488Z,98442.63
2023-05-14T03:06:31.593Z,98442.63
2023-05-14T03:08:58.207Z,98447.78
2023-05-14T03:11:25.443Z,98450.34
2023-05-14T03:13:52.240Z,98446.03
2023-05-14T03:16:18.945Z,98450.59
2023-05-14T03:18:45.623Z,98452.25
2023-05-14T03:21:12.965Z,98449.31
2023-05-14T03:23:39.833Z,98453.44
2023-05-14T03:26:06.553Z,98441.06
2023-05-14T03:28:33.616Z,98444.81
2023-05-14T03:31:00.940Z,98441.97
2023-05-14T03:33:28.050Z,98445.47
2023-05-14T03:35:54.692Z,98435.78
2023-05-14T03:38:21.405Z,98439.13
2023-05-14T03:40:48.110Z,98440.84
2023-05-14T03:43:14.892Z,98436.41
2023-05-14T03:45:42.397Z,98429.38
2023-05-14T03:48:09.232Z,98435.47
2023-05-14T03:50:37.241Z,98430.22
2023-05-14T03:53:03.870Z,98424.78
2023-05-14T03:55:30.555Z,98428.09
2023-05-14T03:57:57.200Z,98428.09
2023-05-14T04:00:24.312Z,98434.28
2023-05-14T04:02:52.836Z,98437.09
2023-05-14T04:05:19.655Z,98437.13
2023-05-14T04:07:47.270Z,98435.44
2023-05-14T04:10:14.063Z,98433.94
2023-05-14T04:12:40.703Z,98443.72
2023-05-14T04:15:08.783Z,98443.41
2023-05-14T04:17:35.726Z,98440.81
2023-05-14T04:20:02.513Z,98437.22
2023-05-14T04:22:29.234Z,98446.03
2023-05-14T04:24:55.807Z,98441.44
2023-05-14T04:27:22.558Z,98434.34
2023-05-14T04:29:50.326Z,98440.59
2023-05-14T04:32:17.711Z,98442.16
2023-05-14T04:34:44.458Z,98445.47
2023-05-14T04:37:11.113Z,98442.59
2023-05-14T04:39:38.318Z,98442.53
2023-05-14T04:42:06.555Z,98444.31
2023-05-14T04:44:34.377Z,98438.00
2023-05-14T04:47:00.979Z,98432.41
2023-05-14T04:49:28.016Z,98436.56
2023-05-14T04:51:54.683Z,98437.09
2023-05-14T04:54:21.651Z,98435.84
2023-05-14T04:56:48.347Z,98435.59
2023-05-14T04:59:15.037Z,98436.16
2023-05-14T05:01:41.736Z,98435.84
2023-05-14T05:04:08.645Z,98438.00
2023-05-14T05:06:35.372Z,98434.94
2023-05-14T05:09:02.418Z,98437.94
2023-05-14T05:11:29.068Z,98436.72
2023-05-14T05:13:55.819Z,98436.81
2023-05-14T05:16:22.829Z,98435.84
2023-05-14T05:18:49.686Z,98433.34
2023-05-14T05:21:16.413Z,98427.91
2023-05-14T05:23:43.053Z,98428.13
2023-05-14T05:26:09.812Z,98427.16
2023-05-14T05:28:36.460Z,98424.63
2023-05-14T05:31:03.225Z,98427.16
2023-05-14T05:33:29.876Z,98422.94
2023-05-14T05:35:56.535Z,98429.66
2023-05-14T05:38:23.171Z,98425.16
2023-05-14T05:40:49.851Z,98411.25
2023-05-14T05:43:16.748Z,98421.75
2023-05-14T05:45:43.485Z,98420.06
2023-05-14T05:48:10.135Z,98419.72
2023-05-14T05:50:37.103Z,98413.97
2023-05-14T05:53:04.025Z,98406.66
2023-05-14T05:55:30.753Z,98408.06
2023-05-14T05:57:57.438Z,98406.22
2023-05-14T06:00:24.811Z,98411.69
2023-05-14T06:02:52.326Z,98405.69
2023-05-14T06:05:19.541Z,98408.59
2023-05-14T06:07:46.296Z,98405.72
2023-05-14T06:10:12.986Z,98405.41
2023-05-14T06:12:40.431Z,98402.81
2023-05-14T06:15:07.567Z,98410.88
2023-05-14T06:17:34.244Z,98401.03
2023-05-14T06:20:00.934Z,98405.19
2023-05-14T06:22:27.667Z,98398.09
2023-05-14T06:24:54.345Z,98404.75
2023-05-14T06:27:21.018Z,98414.78
2023-05-14T06:29:47.647Z,98414.22
2023-05-14T06:32:15.630Z,98413.38
2023-05-14T06:34:42.607Z,98414.63
2023-05-14T06:37:10.465Z,98408.66
2023-05-14T06:39:37.754Z,98414.44
2023-05-14T06:42:05.217Z,98407.59
2023-05-14T06:44:32.252Z,98405.13
2023-05-14T06:46:58.948Z,98397.13
2023-05-14T06:49:25.660Z,98399.84
2023-05-14T06:51:52.328Z,98397.34
2023-05-14T06:54:20.438Z,98395.28
2023-05-14T06:56:47.144Z,98394.22
2023-05-14T06:59:16.677Z,98383.00
2023-05-14T07:01:43.542Z,98388.13
2023-05-14T07:04:10.262Z,98377.66
2023-05-14T07:06:36.942Z,98381.53
2023-05-14T07:09:03.729Z,98383.06
2023-05-14T07:11:30.583Z,98383.59
2023-05-14T07:13:57.340Z,98387.28
2023-05-14T07:16:24.021Z,98384.06
2023-05-14T07:18:51.042Z,98384.25
2023-05-14T07:21:18.078Z,98379.50
2023-05-14T07:23:44.732Z,98376.75
2023-05-14T07:26:11.689Z,98372.59
2023-05-14T07:28:38.371Z,98378.81
2023-05-14T07:31:08.807Z,98384.00
2023-05-14T07:33:36.547Z,98380.09
2023-05-14T07:36:03.274Z,98367.44
2023-05-14T07:38:30.045Z,98369.06
2023-05-14T07:40:56.756Z,98350.41
2023-05-14T07:43:23.482Z,98348.59
2023-05-14T07:45:50.255Z,98350.81
2023-05-14T07:48:17.235Z,98344.53
2023-05-14T07:50:44.130Z,98347.75
2023-05-14T07:53:10.839Z,98344.78
2023-05-14T07:55:37.472Z,98342.59
2023-05-14T07:58:04.139Z,98350.25
2023-05-14T08:00:30.768Z,98356.28
2023-05-14T08:02:57.623Z,98348.56
2023-05-14T08:05:24.498Z,98350.75
2023-05-14T08:07:51.138Z,98350.06
2023-05-14T08:10:17.792Z,98357.19
2023-05-14T08:12:44.565Z,98348.03
2023-05-14T08:15:12.359Z,98335.03
2023-05-14T08:17:39.080Z,98343.50
2023-05-14T08:20:08.985Z,98341.06
2023-05-14T08:22:35.676Z,98348.19
2023-05-14T08:25:03.780Z,98351.31
2023-05-14T08:27:30.958Z,98358.22
2023-05-14T08:29:57.742Z,98356.44
2023-05-14T08:32:24.453Z,98359.16
2023-05-14T08:34:51.518Z,98361.63
2023-05-14T08:37:18.319Z,98345.81
2023-05-14T08:39:44.955Z,98342.09
2023-05-14T08:42:13.228Z,98348.91
2023-05-14T08:44:48.915Z,98341.25
2023-05-14T08:47:18.623Z,98346.66
2023-05-14T08:49:47.545Z,98348.00
2023-05-14T08:52:17.956Z,98359.31
2023-05-14T08:54:46.519Z,98354.03
2023-05-14T08:57:14.295Z,98335.22
2023-05-14T08:59:41.203Z,98327.91
2023-05-14T09:02:11.778Z,98326.47
2023-05-14T09:04:39.138Z,98319.50
2023-05-14T09:07:07.360Z,98308.09
2023-05-14T09:09:34.322Z,98298.69
2023-05-14T09:12:01.737Z,98291.28
2023-05-14T09:14:28.554Z,98290.25
2023-05-14T09:16:55.773Z,98286.84
2023-05-14T09:19:22.730Z,98292.03
2023-05-14T09:21:49.918Z,98284.50
2023-05-14T09:24:24.099Z,98287.91
2023-05-14T09:26:56.282Z,98281.03
2023-05-14T09:29:29.761Z,98285.31
2023-05-14T09:31:58.194Z,98285.91
2023-05-14T09:34:32.551Z,98293.22
2023-05-14T09:37:04.482Z,98284.25
2023-05-14T09:39:32.732Z,98289.47
2023-05-14T09:41:59.900Z,98283.50
2023-05-14T09:44:27.525Z,98272.66
2023-05-14T09:46:54.721Z,98276.47
2023-05-14T09:49:21.727Z,98280.75
2023-05-14T09:51:49.295Z,98276.53
2023-05-14T09:54:15.994Z,98278.72
2023-05-14T09:56:43.614Z,98265.47
2023-05-14T09:59:10.955Z,98269.97
2023-05-14T10:01:38.222Z,98266.25
2023-05-14T10:04:07.759Z,98257.38
2023-05-14T10:06:38.154Z,98258.28
2023-05-14T10:09:09.854Z,98260.00
2023-05-14T10:11:38.349Z,98263.47
2023-05-14T10:14:09.020Z,98260.44
2023-05-14T10:16:40.338Z,98266.94
2023-05-14T10:19:11.431Z,98276.50
2023-05-14T10:21:40.980Z,98276.63
2023-05-14T10:24:09.689Z,98281.56
2023-05-14T10:26:39.449Z,98265.38
2023-05-14T10:29:06.789Z,98271.81
2023-05-14T10:31:53.737Z,98265.00
2023-05-14T10:34:40.966Z,98251.06
2023-05-14T10:37:18.643Z,98252.84
2023-05-14T10:39:51.248Z,98249.84
2023-05-14T10:42:19.014Z,98257.22
2023-05-14T10:44:58.569Z,98256.59
2023-05-14T10:47:29.342Z,98250.41
2023-05-14T10:49:58.359Z,98245.91
2023-05-14T10:52:26.284Z,98238.22
2023-05-14T10:54:57.728Z,98241.03
2023-05-14T10:57:27.157Z,98230.66
2023-05-14T10:59:56.030Z,98234.63
2023-05-14T11:02:27.854Z,98232.25
2023-05-14T11:05:05.641Z,98225.56
2023-05-14T11:07:37.932Z,98220.97
2023-05-14T11:10:11.790Z,98219.66
2023-05-14T11:12:40.675Z,98217.22
2023-05-14T11:15:09.630Z,98207.22
2023-05-14T11:17:37.420Z,98200.84
2023-05-14T11:20:07.956Z,98216.50
2023-05-14T11:22:35.750Z,98194.28
2023-05-14T11:25:03.048Z,98198.34
2023-05-14T11:27:30.865Z,98205.97
2023-05-14T11:29:58.094Z,98211.06
2023-05-14T11:32:25.940Z,98209.84
2023-05-14T11:34:53.120Z,98194.63
2023-05-14T11:37:20.252Z,98187.50
2023-05-14T11:39:52.255Z,98191.59
2023-05-14T11:42:20.188Z,98178.50
2023-05-14T11:44:51.784Z,98182.97
2023-05-14T11:47:20.667Z,98178.16
2023-05-14T11:49:48.619Z,98175.41
2023-05-14T11:52:16.444Z,98169.78
2023-05-14T11:54:43.931Z,98161.91
2023-05-14T11:57:19.195Z,98167.13
2023-05-14T11:59:46.182Z,98154.38
2023-05-14T12:02:14.877Z,98159.78
2023-05-14T12:04:42.723Z,98147.13
2023-05-14T12:07:11.651Z,98150.88
2023-05-14T12:09:43.034Z,98146.28
2023-05-14T12:12:12.797Z,98153.78
2023-05-14T12:14:42.497Z,98165.81
2023-05-14T12:17:19.097Z,98174.06
2023-05-14T12:19:48.227Z,98194.13
2023-05-14T12:22:18.207Z,98189.88
2023-05-14T12:24:54.062Z,98189.34
2023-05-14T12:27:24.653Z,98174.69
2023-05-14T12:30:19.067Z,98179.78
2023-05-14T12:32:46.849Z,98166.59
2023-05-14T12:35:13.520Z,98166.47
2023-05-14T12:37:40.219Z,98151.09
2023-05-14T12:40:10.171Z,98154.88
2023-05-14T12:42:37.340Z,98156.59
2023-05-14T12:45:07.085Z,98159.38
2023-05-14T12:47:34.169Z,98175.13
2023-05-14T12:50:00.897Z,98172.19
2023-05-14T12:52:37.677Z,98186.06
2023-05-14T12:55:07.082Z,98185.94
2023-05-14T12:57:35.507Z,98190.03
2023-05-14T13:00:06.840Z,98201.41
2023-05-14T13:02:43.072Z,98196.28
2023-05-14T13:05:11.297Z,98196.19
2023-05-14T13:07:38.418Z,98214.53
2023-05-14T13:10:05.836Z,98216.56
2023-05-14T13:12:32.725Z,98229.25
2023-05-14T13:14:59.604Z,98229.88
2023-05-14T13:17:26.431Z,98227.97
2023-05-14T13:19:53.127Z,98220.22
2023-05-14T13:22:19.822Z,98205.94
2023-05-14T13:24:46.558Z,98201.03
2023-05-14T13:27:13.257Z,98195.00
2023-05-14T13:29:39.930Z,98196.91
2023-05-14T13:32:07.093Z,98188.69
2023-05-14T13:34:33.904Z,98187.84
2023-05-14T13:37:01.069Z,98191.72
2023-05-14T13:39:27.778Z,98192.75
2023-05-14T13:41:56.625Z,98187.84
2023-05-14T13:44:23.559Z,98181.16
2023-05-14T13:46:50.475Z,98164.28
2023-05-14T13:49:17.342Z,98163.66
2023-05-14T13:51:44.131Z,98154.63
2023-05-14T13:54:10.807Z,98157.56
2023-05-14T13:56:37.493Z,98141.47
2023-05-14T13:59:04.288Z,98132.81
2023-05-14T14:01:31.550Z,98132.91
2023-05-14T14:03:58.442Z,98127.53
2023-05-14T14:06:27.284Z,98118.28
2023-05-14T14:08:53.996Z,98111.50
2023-05-14T14:11:20.903Z,98118.09
2023-05-14T14:13:47.766Z,98108.63
2023-05-14T14:16:15.104Z,98110.84
2023-05-14T14:18:43.038Z,98108.81
2023-05-14T14:21:10.298Z,98104.13
2023-05-14T14:23:37.019Z,98101.41
2023-05-14T14:26:03.820Z,98093.75
2023-05-14T14:28:31.236Z,98086.25
2023-05-14T14:30:58.031Z,98084.00
2023-05-14T14:33:24.734Z,98086.09
2023-05-14T14:35:51.802Z,98083.50
2023-05-14T14:38:19.771Z,98074.56
2023-05-14T14:40:46.762Z,98074.81
2023-05-14T14:43:13.500Z,98074.03
2023-05-14T14:45:40.274Z,98070.94
2023-05-14T14:48:26.743Z,98074.84
2023-05-14T14:50:53.933Z,98076.00
2023-05-14T14:53:21.615Z,98076.31
2023-05-14T14:55:48.906Z,98076.44
2023-05-14T14:58:15.848Z,98071.16
2023-05-14T15:00:43.642Z,98076.84
2023-05-14T15:03:10.523Z,98073.72
2023-05-14T15:05:37.718Z,98073.44
2023-05-14T15:08:04.854Z,98067.38
2023-05-14T15:10:32.532Z,98063.50
2023-05-14T15:12:59.793Z,98069.00
2023-05-14T15:15:26.686Z,98061.75
2023-05-14T15:17:53.539Z,98061.81
2023-05-14T15:20:20.371Z,98064.78
2023-05-14T15:22:47.172Z,98063.94
2023-05-14T15:25:14.037Z,98069.41
2023-05-14T15:27:40.811Z,98065.78
2023-05-14T15:30:08.134Z,98067.97
2023-05-14T15:32:34.821Z,98065.66
2023-05-14T15:35:01.623Z,98069.75
2023-05-14T15:37:28.292Z,98063.28
2023-05-14T15:39:54.997Z,98069.19
2023-05-14T15:42:21.598Z,98058.97
2023-05-14T15:44:48.203Z,98060.25
2023-05-14T15:47:15.020Z,98065.31
2023-05-14T15:49:41.630Z,98065.69
2023-05-14T15:52:08.349Z,98069.72
2023-05-14T15:54:34.998Z,98061.16
2023-05-14T15:57:01.671Z,98062.97
2023-05-14T15:59:28.322Z,98067.38
2023-05-14T16:01:55.006Z,98068.31
2023-05-14T16:04:21.729Z,98067.81
2023-05-14T16:06:48.400Z,98067.44
2023-05-14T16:09:15.032Z,98060.72
2023-05-14T16:11:41.953Z,98067.66
2023-05-14T16:14:08.605Z,98075.44
2023-05-14T16:16:36.485Z,98066.34
2023-05-14T16:19:03.349Z,98071.63
2023-05-14T16:21:30.032Z,98078.28
2023-05-14T16:23:56.829Z,98089.97
2023-05-14T16:26:23.518Z,98101.44
2023-05-14T16:28:50.303Z,98128.09
2023-05-14T16:31:17.039Z,98173.66
2023-05-14T16:33:43.680Z,98173.88
2023-05-14T16:36:10.444Z,98168.94
2023-05-14T16:38:41.503Z,98171.09
2023-05-14T16:41:14.906Z,98167.38
2023-05-14T16:43:41.592Z,98144.84
2023-05-14T16:46:08.335Z,98144.56
2023-05-14T16:48:35.065Z,98144.09
2023-05-14T16:51:01.777Z,98142.59
2023-05-14T16:53:28.414Z,98134.97
2023-05-14T16:55:55.284Z,98142.53
2023-05-14T16:58:21.910Z,98146.25
2023-05-14T17:00:48.532Z,98140.81
2023-05-14T17:03:15.319Z,98149.38
2023-05-14T17:05:42.461Z,98141.53
2023-05-14T17:08:09.140Z,98145.25
2023-05-14T17:10:35.999Z,98143.44
2023-05-14T17:13:02.829Z,98134.72
2023-05-14T17:15:29.661Z,98126.59
2023-05-14T17:17:56.249Z,98130.72
2023-05-14T17:20:23.107Z,98123.25
2023-05-14T17:22:49.940Z,98124.22
2023-05-14T17:25:16.812Z,98130.72
2023-05-14T17:27:43.515Z,98122.78
2023-05-14T17:30:10.557Z,98124.50
2023-05-14T17:32:37.401Z,98125.13
2023-05-14T17:35:05.205Z,98132.25
2023-05-14T17:37:33.203Z,98125.13
2023-05-14T17:39:59.884Z,98136.81
2023-05-14T17:42:26.513Z,98135.00
2023-05-14T17:44:53.783Z,98140.97
2023-05-14T17:47:20.853Z,98144.69
2023-05-14T17:49:51.088Z,98144.13
2023-05-14T17:52:17.833Z,98148.44
2023-05-14T17:54:44.486Z,98147.94
2023-05-14T17:57:11.334Z,98147.47
2023-05-14T17:59:38.005Z,98148.53
2023-05-14T18:02:05.638Z,98148.81
2023-05-14T18:04:32.287Z,98149.28
2023-05-14T18:07:00.892Z,98142.28
2023-05-14T18:09:27.565Z,98140.38
2023-05-14T18:11:56.668Z,98147.69
2023-05-14T18:14:23.654Z,98157.25
2023-05-14T18:16:50.385Z,98153.50
2023-05-14T18:19:17.156Z,98160.28
2023-05-14T18:21:46.490Z,98161.34
2023-05-14T18:24:13.126Z,98168.41
2023-05-14T18:26:39.849Z,98156.00
2023-05-14T18:29:06.416Z,98154.19
2023-05-14T18:31:33.126Z,98158.03
2023-05-14T18:33:59.973Z,98152.13
2023-05-14T18:36:26.644Z,98157.69
2023-05-14T18:38:53.295Z,98160.16
2023-05-14T18:41:19.917Z,98149.91
2023-05-14T18:43:46.544Z,98150.09
2023-05-14T18:46:13.540Z,98153.94
2023-05-14T18:48:40.297Z,98155.94
2023-05-14T18:51:07.557Z,98151.38
2023-05-14T18:53:34.182Z,98164.19
2023-05-14T18:56:00.985Z,98175.75
2023-05-14T18:58:28.142Z,98168.66
2023-05-14T19:00:57.705Z,98172.28
2023-05-14T19:03:25.104Z,98177.72
2023-05-14T19:05:53.166Z,98181.25
2023-05-14T19:08:20.532Z,98180.31
2023-05-14T19:10:47.267Z,98180.13
2023-05-14T19:13:15.818Z,98188.34
2023-05-14T19:15:43.190Z,98186.38
2023-05-14T19:18:10.071Z,98186.56
2023-05-14T19:20:36.695Z,98187.34
2023-05-14T19:23:03.299Z,98189.25
2023-05-14T19:25:29.993Z,98189.81
2023-05-14T19:27:57.281Z,98200.03
2023-05-14T19:30:24.012Z,98207.69
2023-05-14T19:32:50.785Z,98210.66
2023-05-14T19:35:17.551Z,98212.47
2023-05-14T19:37:44.323Z,98202.97
2023-05-14T19:40:11.326Z,98207.78
2023-05-14T19:42:38.092Z,98207.44
2023-05-14T19:45:05.210Z,98204.50
2023-05-14T19:47:32.296Z,98198.28
2023-05-14T19:49:59.044Z,98201.59
2023-05-14T19:52:25.700Z,98205.38
2023-05-14T19:54:52.348Z,98205.38
2023-05-14T19:57:18.991Z,98211.75
2023-05-14T19:59:45.667Z,98213.72
2023-05-14T20:02:18.090Z,98212.28
2023-05-14T20:04:46.010Z,98208.22
2023-05-14T20:07:15.546Z,98216.03
2023-05-14T20:09:42.521Z,98213.97
2023-05-14T20:12:09.585Z,98213.91
2023-05-14T20:14:36.275Z,98217.44
2023-05-14T20:17:03.337Z,98222.25
2023-05-14T20:19:30.556Z,98216.47
2023-05-14T20:21:57.256Z,98220.84
2023-05-14T20:24:23.917Z,98225.78
2023-05-14T20:26:50.739Z,98222.97
2023-05-14T20:29:17.409Z,98211.22
2023-05-14T20:31:44.024Z,98209.97
2023-05-14T20:34:10.636Z,98222.22
2023-05-14T20:36:37.401Z,98218.91
2023-05-14T20:39:06.160Z,98211.41
2023-05-14T20:41:32.858Z,98215.00
2023-05-14T20:43:59.657Z,98209.78
2023-05-14T20:46:26.533Z,98211.38
2023-05-14T20:48:56.868Z,98205.44
2023-05-14T20:51:23.482Z,98212.75
2023-05-14T20:53:50.077Z,98203.00
2023-05-14T20:56:16.740Z,98200.81
2023-05-14T20:58:43.479Z,98199.19
2023-05-14T21:01:10.487Z,98192.25
2023-05-14T21:03:37.258Z,98193.88
2023-05-14T21:06:04.184Z,98194.97
2023-05-14T21:08:32.906Z,98197.59
2023-05-14T21:10:59.916Z,98190.91
2023-05-14T21:13:26.592Z,98190.75
2023-05-14T21:15:53.281Z,98190.13
2023-05-14T21:18:19.992Z,98180.56
2023-05-14T21:20:46.611Z,98178.03
2023-05-14T21:23:13.737Z,98174.72
2023-05-14T21:25:40.545Z,98176.69
2023-05-14T21:28:07.758Z,98168.94
2023-05-14T21:30:34.436Z,98167.19
2023-05-14T21:33:01.191Z,98165.09
2023-05-14T21:35:28.039Z,98164.75
2023-05-14T21:37:54.722Z,98164.31
2023-05-14T21:40:21.367Z,98171.28
2023-05-14T21:42:48.093Z,98163.28
2023-05-14T21:45:14.891Z,98161.09
2023-05-14T21:47:41.703Z,98159.97
2023-05-14T21:50:08.949Z,98163.25
2023-05-14T21:52:36.543Z,98165.44
2023-05-14T21:55:03.391Z,98167.06
2023-05-14T21:57:32.331Z,98177.75
2023-05-14T22:00:00.868Z,98161.84
2023-05-14T22:02:27.668Z,98161.84
2023-05-14T22:04:54.305Z,98161.91
2023-05-14T22:07:21.058Z,98163.44
2023-05-14T22:09:48.150Z,98163.66
2023-05-14T22:12:14.867Z,98162.63
2023-05-14T22:14:41.816Z,98162.19
2023-05-14T22:17:08.707Z,98163.28
2023-05-14T22:19:35.397Z,98159.81
2023-05-14T22:22:02.109Z,98158.81
2023-05-14T22:24:28.760Z,98160.84
2023-05-14T22:26:55.567Z,98176.53
2023-05-14T22:29:22.219Z,98167.44
2023-05-14T22:31:49.023Z,98169.06
2023-05-14T22:34:16.160Z,98167.53
2023-05-14T22:36:42.861Z,98165.63
2023-05-14T22:39:11.308Z,98169.88
2023-05-14T22:41:39.428Z,98171.72
2023-05-14T22:44:06.069Z,98165.25
2023-05-14T22:46:32.835Z,98163.47
2023-05-14T22:49:00.035Z,98165.97
2023-05-14T22:51:26.766Z,98160.25
2023-05-14T22:53:54.150Z,98163.84
2023-05-14T22:56:22.133Z,98150.84
2023-05-14T22:58:48.839Z,98153.41
2023-05-14T23:01:15.536Z,98153.56
2023-05-14T23:03:42.238Z,98151.13
2023-05-14T23:06:08.860Z,98155.88
2023-05-14T23:08:35.544Z,98160.00
2023-05-14T23:11:02.170Z,98162.53
2023-05-14T23:13:28.896Z,98156.88
2023-05-14T23:15:55.554Z,98155.75
2023-05-14T23:18:23.942Z,98152.41
2023-05-14T23:20:50.729Z,98144.19
2023-05-14T23:23:17.391Z,98157.22
2023-05-14T23:25:44.182Z,98159.16
2023-05-14T23:28:10.936Z,98158.38
2023-05-14T23:30:37.527Z,98153.63
2023-05-14T23:33:04.242Z,98161.41
2023-05-14T23:35:32.360Z,98152.53
2023-05-14T23:37:59.194Z,98150.75
2023-05-14T23:40:25.935Z,98145.28
2023-05-14T23:42:52.564Z,98139.56
2023-05-14T23:45:19.220Z,98140.19
2023-05-14T23:47:46.020Z,98136.66
2023-05-14T23:50:12.683Z,98135.94
2023-05-14T23:52:39.352Z,98140.19
2023-05-14T23:55:06.490Z,98134.66
2023-05-14T23:57:33.221Z,98138.44
2023-05-14T23:59:59.937Z,98130.47
